Northern Sonoma County Latest

25 Stations

15 Minute Data | America/Los_Angeles
as of 5/5/26 4:24 PM PDT
Station Date Time Temp (°F) RH (%) Dew Pt (°F) Wind Spd (mph) Wind Dir (°) Wind Gust (mph) Latest Rain (In) Daily Rain (In) Daily Max Temp (°F) Daily Min Temp (°F)
Bavarian Lion EFW 5/5/26 1615 64.2   8.0 - - - - - 0.00 0.01 65.6   1.9 52.1   5.2
Rockpile Lower (Cooley) 5/5/26 1600 63.7   9.6 66   25 52.0   0.7 3.7   1.2 WSW | 247 8.5   2.3 0.00 0.00 66.4   4.0 48.6   0.1
Rockpile Upper (Cooley) 5/5/26 1615 60.8   9.8 71   27 51.5   0.8 6.2   4.2 SSW | 198 12.3   6.6 0.00 0.00 63.7   3.6 45.0   0.4
Lower Dry Creek Valley 5/5/26 1615 69.2   11.6 58   33 53.7   1.2 3.2   3.2 SSE | 148 7.9   7.9 0.00 0.01 70.3   1.1 51.7   3.2
Geyserville-South (Nervo Station) 5/5/26 1615 66.5   9.8 - - 3.7   3.6 SE | 138 7.1   5.4 0.00 0.00 69.2   0.6 50.5   0.4
Franz Valley (Stornetta) 5/5/26 1615 63.0   8.0 68   18 52.3   1.5 1.9   0.3 W | 262 5.0   1.1 0.00 0.05 63.7   1.9 51.4   5.6
Geyserville (Ranch 3) 5/5/26 1615 68.3   10.6 58   28 52.9   0.5 4.4   3.8 SE | 141 8.9   7.1 0.00 0.00 68.9   1.2 52.1   0.5
Geyserville-North (Hoffman) 5/5/26 1615 70.6   13.0 58   30 55.3   1.2 4.1   3.8 SSE | 156 9.0   7.5 0.00 0.00 71.4   3.7 51.1   0.2
Knights Valley (Bavarian Lion) 5/5/26 1615 63.4   8.3 67   22 52.1   0.4 1.3   1.2 NNW | 344 3.9   1.5 0.00 0.01 64.8   2.3 51.3   4.5
HWY 128/Chalk Hill Rd (Landslide) 5/5/26 1600 65.9   8.7 63   27 53.1   1.3 2.0   0.4 SSW | 194 5.2   0.5 0.00 0.02 66.7   1.5 52.4   1.9
Newman Knights Valley 5/5/26 1615 63.8   6.9 74   11 55.2   2.9 1.7   0.5 ENE | 69 3.8   0.7 0.00 0.01 64.3   1.3 52.6   2.0
Jimtown-North (Piccolo Ranch 15) 5/5/26 1615 70.8   13.3 51   38 51.7   2.6 2.9   0.9 ENE | 61 6.6   2.9 0.00 0.00 71.9   5.0 52.1   1.1
Peterson (Ranch 09) 5/5/26 1615 68.0   11.1 56   29 52.0   0.6 3.0   1.8 E | 83 7.5   4.8 0.00 0.00 68.3   0.9 51.7   1.9
Cloverdale-SE (Ranch 38) 5/5/26 1615 68.6   12.2 62   27 55.0   1.9 8.1   7.1 S | 173 14.5   12.3 0.00 0.00 69.4   5.4 50.2   0.6
Geyserville-East (Ranch 40) 5/5/26 1615 66.5   11.5 66   30 54.7   0.9 7.7   4.8 SSW | 202 13.7   9.4 0.00 0.00 69.8   2.9 49.9   0.7
N Chalk Hill Rd (Ranch 63) 5/5/26 1615 65.9   10.0 63   29 52.8   0.6 3.7   1.1 S | 172 8.2   2.3 0.00 0.00 66.6   1.2 49.0   0.1
Cloverdale-East (Ranch 83) 5/5/26 1615 70.8   12.7 - - 4.9   3.5 SSE | 152 12.0   8.3 0.00 0.00 71.5   5.6 49.3   1.6
Crazy Creek Ranch 5/5/26 1615 68.1   10.4 66   26 56.1   0.7 4.3   3.6 SE | 144 8.6   7.1 0.00 0.00 68.3   1.5 52.0   0.5
Lytton East (Hill 5) 5/5/26 1615 66.2   9.8 63   28 53.4   0.7 4.6   2.3 ESE | 121 9.1   5.1 0.00 0.01 68.4   1.1 50.6   1.4
Lytton East (Shop Hill Bottom) 5/5/26 1615 67.6   10.9 59   30 52.8   0.8 3.8   2.2 ESE | 121 6.6   3.4 0.00 0.00 68.3   1.1 51.0   2.6
Lytton West Hill (23PS) 5/5/26 1615 68.6   11.6 58   33 53.4   1.0 4.9   3.5 SSE | 157 9.6   7.2 0.00 0.00 70.1   2.9 51.7   2.6
Lytton West Lower (Lew 6) 5/5/26 1615 68.9   12.1 58   33 53.3   0.7 4.0   2.0 SSE | 168 7.1   3.9 0.00 0.01 69.6   2.6 51.3   3.8
Whitton Ranch (201e) 5/5/26 1615 68.5   11.2 58   29 53.3   0.4 3.0   2.7 SE | 140 5.9   3.9 0.00 0.00 69.2   1.1 51.2   1.4
Upper Dry Creek Valley 5/5/26 1615 69.6   11.0 56   30 53.2   1.3 4.3   1.9 SE | 145 8.6   4.3 0.00 0.01 70.1   2.3 51.3   3.1
Big River 5/5/26 1615 65.8   9.0 67   28 54.7   0.9 3.8   1.8 SSE | 148 6.4   3.2 0.00 0.01 66.3   1.0 52.0   3.1
Max     70.8 74 56.1 8.1 - 14.5 0.00 0.05 71.9 52.6
Avg     66.9 62 53.4 4.0 - 8.2 0.00 - - -
Min     60.8 51 51.5 1.3 - 3.8 0.00 0.00 63.7 45.0